<?xml version="1.0" encoding="UTF-8" standalone="no" ?>
<gpx xmlns="http://www.topografix.com/GPX/1/1" xmlns:xsi="http://www.w3.org/2001/XMLSchema-instance" xsi:schemaLocation="http://www.topografix.com/GPX/1/1 http://www.topografix.com/GPX/1/1/gpx.xsd" version="1.1" creator="VisuGPX - https://www.visugpx.com">
  <metadata>
    <name>gernelle-vivier au court-rumel</name>
    <desc><![CDATA[passages en forêt, sous bois, lisières, champs...itinéraire varié et peu difficile.]]></desc>
  </metadata>
  <trk>
    <name><![CDATA[ACTIVE LOG 001]]></name>
    <trkseg>
      <trkpt lat="49.76712" lon="4.8178">
        <ele>155.8709717</ele>
        <time>2012-10-06T07:16:16Z</time>
      </trkpt>
      <trkpt lat="49.76735" lon="4.8177">
        <ele>160.6774902</ele>
        <time>2012-10-06T07:16:36Z</time>
      </trkpt>
      <trkpt lat="49.76735" lon="4.81771">
        <ele>165.003418</ele>
        <time>2012-10-06T07:16:38Z</time>
      </trkpt>
      <trkpt lat="49.76735" lon="4.81771">
        <ele>168.8487549</ele>
        <time>2012-10-06T07:16:40Z</time>
      </trkpt>
      <trkpt lat="49.76735" lon="4.81771">
        <ele>172.2132568</ele>
        <time>2012-10-06T07:16:42Z</time>
      </trkpt>
      <trkpt lat="49.76735" lon="4.81771">
        <ele>176.0585938</ele>
        <time>2012-10-06T07:16:44Z</time>
      </trkpt>
      <trkpt lat="49.76735" lon="4.81771">
        <ele>178.942627</ele>
        <time>2012-10-06T07:16:46Z</time>
      </trkpt>
      <trkpt lat="49.76735" lon="4.81771">
        <ele>183.2684326</ele>
        <time>2012-10-06T07:16:49Z</time>
      </trkpt>
      <trkpt lat="49.76735" lon="4.81771">
        <ele>187.5943604</ele>
        <time>2012-10-06T07:16:52Z</time>
      </trkpt>
      <trkpt lat="49.76735" lon="4.81771">
        <ele>190.9589844</ele>
        <time>2012-10-06T07:16:55Z</time>
      </trkpt>
      <trkpt lat="49.76735" lon="4.81771">
        <ele>193.8430176</ele>
        <time>2012-10-06T07:16:58Z</time>
      </trkpt>
      <trkpt lat="49.76735" lon="4.81771">
        <ele>197.6882324</ele>
        <time>2012-10-06T07:17:02Z</time>
      </trkpt>
      <trkpt lat="49.76735" lon="4.81771">
        <ele>201.0528564</ele>
        <time>2012-10-06T07:17:06Z</time>
      </trkpt>
      <trkpt lat="49.76735" lon="4.81771">
        <ele>203.9368896</ele>
        <time>2012-10-06T07:17:10Z</time>
      </trkpt>
      <trkpt lat="49.76735" lon="4.81771">
        <ele>207.3013916</ele>
        <time>2012-10-06T07:17:15Z</time>
      </trkpt>
      <trkpt lat="49.76735" lon="4.81771">
        <ele>210.1854248</ele>
        <time>2012-10-06T07:17:21Z</time>
      </trkpt>
      <trkpt lat="49.76735" lon="4.81771">
        <ele>213.0693359</ele>
        <time>2012-10-06T07:17:28Z</time>
      </trkpt>
      <trkpt lat="49.76735" lon="4.81771">
        <ele>216.43396</ele>
        <time>2012-10-06T07:17:37Z</time>
      </trkpt>
      <trkpt lat="49.76735" lon="4.81771">
        <ele>219.3179932</ele>
        <time>2012-10-06T07:17:51Z</time>
      </trkpt>
      <trkpt lat="49.76735" lon="4.81771">
        <ele>222.2017822</ele>
        <time>2012-10-06T07:18:24Z</time>
      </trkpt>
      <trkpt lat="49.76733" lon="4.81771">
        <ele>222.6824951</ele>
        <time>2012-10-06T07:18:46Z</time>
      </trkpt>
      <trkpt lat="49.76738" lon="4.81816">
        <ele>223.163208</ele>
        <time>2012-10-06T07:18:58Z</time>
      </trkpt>
      <trkpt lat="49.76756" lon="4.81906">
        <ele>221.7211914</ele>
        <time>2012-10-06T07:19:16Z</time>
      </trkpt>
      <trkpt lat="49.76783" lon="4.81999">
        <ele>220.2791748</ele>
        <time>2012-10-06T07:19:35Z</time>
      </trkpt>
      <trkpt lat="49.76798" lon="4.82104">
        <ele>219.798584</ele>
        <time>2012-10-06T07:19:55Z</time>
      </trkpt>
      <trkpt lat="49.76815" lon="4.82245">
        <ele>219.3179932</ele>
        <time>2012-10-06T07:20:20Z</time>
      </trkpt>
      <trkpt lat="49.76826" lon="4.82298">
        <ele>218.3565674</ele>
        <time>2012-10-06T07:20:31Z</time>
      </trkpt>
      <trkpt lat="49.76833" lon="4.8236">
        <ele>220.7598877</ele>
        <time>2012-10-06T07:20:44Z</time>
      </trkpt>
      <trkpt lat="49.76854" lon="4.82412">
        <ele>222.6824951</ele>
        <time>2012-10-06T07:21:01Z</time>
      </trkpt>
      <trkpt lat="49.76893" lon="4.82463">
        <ele>225.5665283</ele>
        <time>2012-10-06T07:21:24Z</time>
      </trkpt>
      <trkpt lat="49.7694" lon="4.82523">
        <ele>228.4504395</ele>
        <time>2012-10-06T07:21:54Z</time>
      </trkpt>
      <trkpt lat="49.76989" lon="4.82585">
        <ele>231.3343506</ele>
        <time>2012-10-06T07:22:24Z</time>
      </trkpt>
      <trkpt lat="49.7702" lon="4.82613">
        <ele>234.2183838</ele>
        <time>2012-10-06T07:22:45Z</time>
      </trkpt>
      <trkpt lat="49.77043" lon="4.82631">
        <ele>236.1409912</ele>
        <time>2012-10-06T07:23:04Z</time>
      </trkpt>
      <trkpt lat="49.77074" lon="4.8265">
        <ele>238.0635986</ele>
        <time>2012-10-06T07:23:22Z</time>
      </trkpt>
      <trkpt lat="49.77114" lon="4.82682">
        <ele>239.9862061</ele>
        <time>2012-10-06T07:23:44Z</time>
      </trkpt>
      <trkpt lat="49.77164" lon="4.82722">
        <ele>240.9476318</ele>
        <time>2012-10-06T07:24:07Z</time>
      </trkpt>
      <trkpt lat="49.77206" lon="4.82764">
        <ele>241.4282227</ele>
        <time>2012-10-06T07:24:28Z</time>
      </trkpt>
      <trkpt lat="49.77224" lon="4.82784">
        <ele>241.4282227</ele>
        <time>2012-10-06T07:24:36Z</time>
      </trkpt>
      <trkpt lat="49.77253" lon="4.82816">
        <ele>241.4282227</ele>
        <time>2012-10-06T07:24:49Z</time>
      </trkpt>
      <trkpt lat="49.77305" lon="4.82867">
        <ele>241.9089355</ele>
        <time>2012-10-06T07:25:09Z</time>
      </trkpt>
      <trkpt lat="49.77377" lon="4.82928">
        <ele>242.3896484</ele>
        <time>2012-10-06T07:25:34Z</time>
      </trkpt>
      <trkpt lat="49.77384" lon="4.82945">
        <ele>245.2734375</ele>
        <time>2012-10-06T07:38:52Z</time>
      </trkpt>
      <trkpt lat="49.77363" lon="4.82982">
        <ele>248.1575928</ele>
        <time>2012-10-06T07:39:12Z</time>
      </trkpt>
      <trkpt lat="49.77361" lon="4.82986">
        <ele>248.6381836</ele>
        <time>2012-10-06T07:39:14Z</time>
      </trkpt>
      <trkpt lat="49.7736" lon="4.8299">
        <ele>249.1187744</ele>
        <time>2012-10-06T07:39:16Z</time>
      </trkpt>
      <trkpt lat="49.77339" lon="4.83034">
        <ele>251.5220947</ele>
        <time>2012-10-06T07:39:39Z</time>
      </trkpt>
      <trkpt lat="49.77337" lon="4.83039">
        <ele>252.9639893</ele>
        <time>2012-10-06T07:39:47Z</time>
      </trkpt>
      <trkpt lat="49.77322" lon="4.83049">
        <ele>253.4447021</ele>
        <time>2012-10-06T07:39:56Z</time>
      </trkpt>
      <trkpt lat="49.77308" lon="4.83063">
        <ele>254.4060059</ele>
        <time>2012-10-06T07:40:05Z</time>
      </trkpt>
      <trkpt lat="49.77298" lon="4.83078">
        <ele>254.8865967</ele>
        <time>2012-10-06T07:40:16Z</time>
      </trkpt>
      <trkpt lat="49.77296" lon="4.8308">
        <ele>254.8865967</ele>
        <time>2012-10-06T07:40:19Z</time>
      </trkpt>
      <trkpt lat="49.77271" lon="4.83088">
        <ele>254.8865967</ele>
        <time>2012-10-06T07:40:33Z</time>
      </trkpt>
      <trkpt lat="49.7726" lon="4.8308">
        <ele>254.8865967</ele>
        <time>2012-10-06T07:40:41Z</time>
      </trkpt>
      <trkpt lat="49.77254" lon="4.83075">
        <ele>254.8865967</ele>
        <time>2012-10-06T07:40:45Z</time>
      </trkpt>
      <trkpt lat="49.77232" lon="4.83054">
        <ele>256.3287354</ele>
        <time>2012-10-06T07:41:00Z</time>
      </trkpt>
      <trkpt lat="49.77225" lon="4.83054">
        <ele>256.8093262</ele>
        <time>2012-10-06T07:41:06Z</time>
      </trkpt>
      <trkpt lat="49.77211" lon="4.8305">
        <ele>257.770752</ele>
        <time>2012-10-06T07:41:12Z</time>
      </trkpt>
      <trkpt lat="49.77202" lon="4.83042">
        <ele>258.2513428</ele>
        <time>2012-10-06T07:41:18Z</time>
      </trkpt>
      <trkpt lat="49.77183" lon="4.83022">
        <ele>258.7319336</ele>
        <time>2012-10-06T07:41:31Z</time>
      </trkpt>
      <trkpt lat="49.77171" lon="4.8301">
        <ele>260.1739502</ele>
        <time>2012-10-06T07:41:39Z</time>
      </trkpt>
      <trkpt lat="49.77166" lon="4.8301">
        <ele>260.1739502</ele>
        <time>2012-10-06T07:41:42Z</time>
      </trkpt>
      <trkpt lat="49.77133" lon="4.82981">
        <ele>260.1739502</ele>
        <time>2012-10-06T07:42:03Z</time>
      </trkpt>
      <trkpt lat="49.77118" lon="4.82952">
        <ele>260.1739502</ele>
        <time>2012-10-06T07:42:18Z</time>
      </trkpt>
      <trkpt lat="49.77109" lon="4.82932">
        <ele>261.1352539</ele>
        <time>2012-10-06T07:42:28Z</time>
      </trkpt>
      <trkpt lat="49.77102" lon="4.82933">
        <ele>261.1352539</ele>
        <time>2012-10-06T07:42:32Z</time>
      </trkpt>
      <trkpt lat="49.77076" lon="4.82961">
        <ele>262.5771484</ele>
        <time>2012-10-06T07:42:51Z</time>
      </trkpt>
      <trkpt lat="49.77049" lon="4.82996">
        <ele>264.0192871</ele>
        <time>2012-10-06T07:43:12Z</time>
      </trkpt>
      <trkpt lat="49.77017" lon="4.83041">
        <ele>263.5385742</ele>
        <time>2012-10-06T07:43:33Z</time>
      </trkpt>
      <trkpt lat="49.76974" lon="4.83103">
        <ele>262.0965576</ele>
        <time>2012-10-06T07:43:53Z</time>
      </trkpt>
      <trkpt lat="49.76944" lon="4.83143">
        <ele>260.654541</ele>
        <time>2012-10-06T07:44:11Z</time>
      </trkpt>
      <trkpt lat="49.7694" lon="4.83141">
        <ele>260.1739502</ele>
        <time>2012-10-06T07:44:13Z</time>
      </trkpt>
      <trkpt lat="49.76915" lon="4.83084">
        <ele>258.2513428</ele>
        <time>2012-10-06T07:44:29Z</time>
      </trkpt>
      <trkpt lat="49.76876" lon="4.82996">
        <ele>256.8093262</ele>
        <time>2012-10-06T07:44:49Z</time>
      </trkpt>
      <trkpt lat="49.76856" lon="4.8294">
        <ele>255.8480225</ele>
        <time>2012-10-06T07:45:07Z</time>
      </trkpt>
      <trkpt lat="49.76834" lon="4.82893">
        <ele>253.925415</ele>
        <time>2012-10-06T07:45:23Z</time>
      </trkpt>
      <trkpt lat="49.7681" lon="4.82843">
        <ele>252.4833984</ele>
        <time>2012-10-06T07:45:38Z</time>
      </trkpt>
      <trkpt lat="49.76773" lon="4.82769">
        <ele>249.1187744</ele>
        <time>2012-10-06T07:45:56Z</time>
      </trkpt>
      <trkpt lat="49.76743" lon="4.82693">
        <ele>247.1960449</ele>
        <time>2012-10-06T07:46:12Z</time>
      </trkpt>
      <trkpt lat="49.76711" lon="4.82584">
        <ele>245.2734375</ele>
        <time>2012-10-06T07:46:33Z</time>
      </trkpt>
      <trkpt lat="49.76687" lon="4.82485">
        <ele>243.831543</ele>
        <time>2012-10-06T07:46:54Z</time>
      </trkpt>
      <trkpt lat="49.76663" lon="4.82391">
        <ele>243.3508301</ele>
        <time>2012-10-06T07:47:16Z</time>
      </trkpt>
      <trkpt lat="49.76654" lon="4.82281">
        <ele>241.9089355</ele>
        <time>2012-10-06T07:47:37Z</time>
      </trkpt>
      <trkpt lat="49.76643" lon="4.82208">
        <ele>242.3896484</ele>
        <time>2012-10-06T07:47:53Z</time>
      </trkpt>
      <trkpt lat="49.76632" lon="4.82164">
        <ele>241.9089355</ele>
        <time>2012-10-06T07:48:05Z</time>
      </trkpt>
      <trkpt lat="49.76617" lon="4.82108">
        <ele>242.8702393</ele>
        <time>2012-10-06T07:48:20Z</time>
      </trkpt>
      <trkpt lat="49.76616" lon="4.82099">
        <ele>242.3896484</ele>
        <time>2012-10-06T07:48:22Z</time>
      </trkpt>
      <trkpt lat="49.76603" lon="4.82056">
        <ele>243.3508301</ele>
        <time>2012-10-06T07:48:34Z</time>
      </trkpt>
      <trkpt lat="49.76597" lon="4.82016">
        <ele>242.3896484</ele>
        <time>2012-10-06T07:48:43Z</time>
      </trkpt>
      <trkpt lat="49.76589" lon="4.81997">
        <ele>241.9089355</ele>
        <time>2012-10-06T07:48:49Z</time>
      </trkpt>
      <trkpt lat="49.7658" lon="4.81999">
        <ele>242.3896484</ele>
        <time>2012-10-06T07:48:53Z</time>
      </trkpt>
      <trkpt lat="49.76547" lon="4.82028">
        <ele>241.9089355</ele>
        <time>2012-10-06T07:49:07Z</time>
      </trkpt>
      <trkpt lat="49.76542" lon="4.8203">
        <ele>242.8702393</ele>
        <time>2012-10-06T07:49:17Z</time>
      </trkpt>
      <trkpt lat="49.76542" lon="4.82031">
        <ele>241.9089355</ele>
        <time>2012-10-06T07:52:25Z</time>
      </trkpt>
      <trkpt lat="49.7654" lon="4.82015">
        <ele>241.9089355</ele>
        <time>2012-10-06T07:52:32Z</time>
      </trkpt>
      <trkpt lat="49.76525" lon="4.81962">
        <ele>242.8702393</ele>
        <time>2012-10-06T07:52:49Z</time>
      </trkpt>
      <trkpt lat="49.76505" lon="4.81897">
        <ele>243.831543</ele>
        <time>2012-10-06T07:53:08Z</time>
      </trkpt>
      <trkpt lat="49.76491" lon="4.81838">
        <ele>244.7928467</ele>
        <time>2012-10-06T07:53:26Z</time>
      </trkpt>
      <trkpt lat="49.76479" lon="4.81784">
        <ele>246.2348633</ele>
        <time>2012-10-06T07:53:45Z</time>
      </trkpt>
      <trkpt lat="49.76469" lon="4.81742">
        <ele>248.1575928</ele>
        <time>2012-10-06T07:54:05Z</time>
      </trkpt>
      <trkpt lat="49.76455" lon="4.81698">
        <ele>249.5994873</ele>
        <time>2012-10-06T07:54:28Z</time>
      </trkpt>
      <trkpt lat="49.76446" lon="4.8166">
        <ele>251.0413818</ele>
        <time>2012-10-06T07:54:47Z</time>
      </trkpt>
      <trkpt lat="49.76433" lon="4.81612">
        <ele>254.4060059</ele>
        <time>2012-10-06T07:55:14Z</time>
      </trkpt>
      <trkpt lat="49.76428" lon="4.81604">
        <ele>255.3673096</ele>
        <time>2012-10-06T07:55:20Z</time>
      </trkpt>
      <trkpt lat="49.76426" lon="4.816">
        <ele>255.8480225</ele>
        <time>2012-10-06T07:55:24Z</time>
      </trkpt>
      <trkpt lat="49.76421" lon="4.81576">
        <ele>257.770752</ele>
        <time>2012-10-06T07:55:37Z</time>
      </trkpt>
      <trkpt lat="49.76421" lon="4.81552">
        <ele>260.1739502</ele>
        <time>2012-10-06T07:55:50Z</time>
      </trkpt>
      <trkpt lat="49.76419" lon="4.81549">
        <ele>260.654541</ele>
        <time>2012-10-06T07:55:54Z</time>
      </trkpt>
      <trkpt lat="49.76409" lon="4.81526">
        <ele>262.0965576</ele>
        <time>2012-10-06T07:56:08Z</time>
      </trkpt>
      <trkpt lat="49.76402" lon="4.81516">
        <ele>263.0578613</ele>
        <time>2012-10-06T07:56:14Z</time>
      </trkpt>
      <trkpt lat="49.76398" lon="4.81512">
        <ele>263.0578613</ele>
        <time>2012-10-06T07:56:18Z</time>
      </trkpt>
      <trkpt lat="49.76393" lon="4.81505">
        <ele>263.5385742</ele>
        <time>2012-10-06T07:56:23Z</time>
      </trkpt>
      <trkpt lat="49.76381" lon="4.81478">
        <ele>264.9805908</ele>
        <time>2012-10-06T07:56:37Z</time>
      </trkpt>
      <trkpt lat="49.76368" lon="4.81468">
        <ele>264.9805908</ele>
        <time>2012-10-06T07:56:50Z</time>
      </trkpt>
      <trkpt lat="49.76365" lon="4.81466">
        <ele>264.9805908</ele>
        <time>2012-10-06T07:56:52Z</time>
      </trkpt>
      <trkpt lat="49.76339" lon="4.81463">
        <ele>265.9418945</ele>
        <time>2012-10-06T07:57:08Z</time>
      </trkpt>
      <trkpt lat="49.7631" lon="4.81458">
        <ele>264.0192871</ele>
        <time>2012-10-06T07:57:20Z</time>
      </trkpt>
      <trkpt lat="49.7628" lon="4.81456">
        <ele>261.1352539</ele>
        <time>2012-10-06T07:57:27Z</time>
      </trkpt>
      <trkpt lat="49.7625" lon="4.81451">
        <ele>258.7319336</ele>
        <time>2012-10-06T07:57:32Z</time>
      </trkpt>
      <trkpt lat="49.76239" lon="4.8145">
        <ele>258.7319336</ele>
        <time>2012-10-06T07:57:34Z</time>
      </trkpt>
      <trkpt lat="49.76186" lon="4.81445">
        <ele>256.3287354</ele>
        <time>2012-10-06T07:57:47Z</time>
      </trkpt>
      <trkpt lat="49.76184" lon="4.81446">
        <ele>256.3287354</ele>
        <time>2012-10-06T07:57:48Z</time>
      </trkpt>
      <trkpt lat="49.76183" lon="4.8143">
        <ele>255.3673096</ele>
        <time>2012-10-06T07:57:54Z</time>
      </trkpt>
      <trkpt lat="49.76181" lon="4.81413">
        <ele>253.4447021</ele>
        <time>2012-10-06T07:57:58Z</time>
      </trkpt>
      <trkpt lat="49.76184" lon="4.81354">
        <ele>250.560791</ele>
        <time>2012-10-06T07:58:07Z</time>
      </trkpt>
      <trkpt lat="49.76184" lon="4.81346">
        <ele>249.5994873</ele>
        <time>2012-10-06T07:58:08Z</time>
      </trkpt>
      <trkpt lat="49.76176" lon="4.81323">
        <ele>246.7154541</ele>
        <time>2012-10-06T07:58:12Z</time>
      </trkpt>
      <trkpt lat="49.76178" lon="4.81281">
        <ele>250.0802002</ele>
        <time>2012-10-06T07:58:19Z</time>
      </trkpt>
      <trkpt lat="49.76178" lon="4.81279">
        <ele>250.0802002</ele>
        <time>2012-10-06T07:58:20Z</time>
      </trkpt>
      <trkpt lat="49.7618" lon="4.81271">
        <ele>251.0413818</ele>
        <time>2012-10-06T07:58:23Z</time>
      </trkpt>
      <trkpt lat="49.76181" lon="4.81264">
        <ele>251.5220947</ele>
        <time>2012-10-06T07:58:27Z</time>
      </trkpt>
      <trkpt lat="49.76186" lon="4.81233">
        <ele>253.4447021</ele>
        <time>2012-10-06T07:58:40Z</time>
      </trkpt>
      <trkpt lat="49.76188" lon="4.81192">
        <ele>254.4060059</ele>
        <time>2012-10-06T07:58:53Z</time>
      </trkpt>
      <trkpt lat="49.7619" lon="4.81161">
        <ele>253.925415</ele>
        <time>2012-10-06T07:59:01Z</time>
      </trkpt>
      <trkpt lat="49.76195" lon="4.81089">
        <ele>251.0413818</ele>
        <time>2012-10-06T07:59:19Z</time>
      </trkpt>
      <trkpt lat="49.76196" lon="4.81047">
        <ele>250.560791</ele>
        <time>2012-10-06T07:59:27Z</time>
      </trkpt>
      <trkpt lat="49.76196" lon="4.8099">
        <ele>251.5220947</ele>
        <time>2012-10-06T07:59:41Z</time>
      </trkpt>
      <trkpt lat="49.76198" lon="4.80949">
        <ele>252.0028076</ele>
        <time>2012-10-06T07:59:53Z</time>
      </trkpt>
      <trkpt lat="49.76199" lon="4.80933">
        <ele>252.0028076</ele>
        <time>2012-10-06T07:59:57Z</time>
      </trkpt>
      <trkpt lat="49.76198" lon="4.80927">
        <ele>251.5220947</ele>
        <time>2012-10-06T07:59:59Z</time>
      </trkpt>
      <trkpt lat="49.76201" lon="4.80911">
        <ele>251.0413818</ele>
        <time>2012-10-06T08:00:10Z</time>
      </trkpt>
      <trkpt lat="49.76202" lon="4.80909">
        <ele>251.0413818</ele>
        <time>2012-10-06T08:00:47Z</time>
      </trkpt>
      <trkpt lat="49.76204" lon="4.80909">
        <ele>251.5220947</ele>
        <time>2012-10-06T08:01:50Z</time>
      </trkpt>
      <trkpt lat="49.76206" lon="4.80909">
        <ele>252.0028076</ele>
        <time>2012-10-06T08:02:06Z</time>
      </trkpt>
      <trkpt lat="49.76207" lon="4.8091">
        <ele>252.0028076</ele>
        <time>2012-10-06T08:02:15Z</time>
      </trkpt>
      <trkpt lat="49.76225" lon="4.80908">
        <ele>252.9639893</ele>
        <time>2012-10-06T08:02:29Z</time>
      </trkpt>
      <trkpt lat="49.76253" lon="4.80921">
        <ele>256.3287354</ele>
        <time>2012-10-06T08:02:47Z</time>
      </trkpt>
      <trkpt lat="49.76287" lon="4.80937">
        <ele>258.7319336</ele>
        <time>2012-10-06T08:03:09Z</time>
      </trkpt>
      <trkpt lat="49.76308" lon="4.80944">
        <ele>260.1739502</ele>
        <time>2012-10-06T08:03:25Z</time>
      </trkpt>
      <trkpt lat="49.76312" lon="4.8091">
        <ele>260.654541</ele>
        <time>2012-10-06T08:03:39Z</time>
      </trkpt>
      <trkpt lat="49.76316" lon="4.80868">
        <ele>261.6159668</ele>
        <time>2012-10-06T08:03:52Z</time>
      </trkpt>
      <trkpt lat="49.7632" lon="4.80831">
        <ele>262.5771484</ele>
        <time>2012-10-06T08:04:02Z</time>
      </trkpt>
      <trkpt lat="49.76315" lon="4.80769">
        <ele>263.0578613</ele>
        <time>2012-10-06T08:04:18Z</time>
      </trkpt>
      <trkpt lat="49.76325" lon="4.80718">
        <ele>263.5385742</ele>
        <time>2012-10-06T08:04:33Z</time>
      </trkpt>
      <trkpt lat="49.7636" lon="4.80653">
        <ele>262.5771484</ele>
        <time>2012-10-06T08:04:52Z</time>
      </trkpt>
      <trkpt lat="49.76387" lon="4.80625">
        <ele>262.0965576</ele>
        <time>2012-10-06T08:05:04Z</time>
      </trkpt>
      <trkpt lat="49.76443" lon="4.80592">
        <ele>260.654541</ele>
        <time>2012-10-06T08:05:22Z</time>
      </trkpt>
      <trkpt lat="49.76463" lon="4.8058">
        <ele>260.654541</ele>
        <time>2012-10-06T08:05:34Z</time>
      </trkpt>
      <trkpt lat="49.76463" lon="4.8058">
        <ele>259.2126465</ele>
        <time>2012-10-06T08:05:52Z</time>
      </trkpt>
      <trkpt lat="49.76462" lon="4.8058">
        <ele>260.654541</ele>
        <time>2012-10-06T08:05:55Z</time>
      </trkpt>
      <trkpt lat="49.76462" lon="4.8058">
        <ele>260.1739502</ele>
        <time>2012-10-06T08:05:56Z</time>
      </trkpt>
      <trkpt lat="49.76464" lon="4.80578">
        <ele>260.1739502</ele>
        <time>2012-10-06T08:06:57Z</time>
      </trkpt>
      <trkpt lat="49.76484" lon="4.80562">
        <ele>259.6933594</ele>
        <time>2012-10-06T08:07:10Z</time>
      </trkpt>
      <trkpt lat="49.76512" lon="4.80536">
        <ele>259.6933594</ele>
        <time>2012-10-06T08:07:26Z</time>
      </trkpt>
      <trkpt lat="49.76542" lon="4.80519">
        <ele>259.6933594</ele>
        <time>2012-10-06T08:07:42Z</time>
      </trkpt>
      <trkpt lat="49.76554" lon="4.80515">
        <ele>260.654541</ele>
        <time>2012-10-06T08:07:49Z</time>
      </trkpt>
      <trkpt lat="49.76563" lon="4.80511">
        <ele>261.1352539</ele>
        <time>2012-10-06T08:07:54Z</time>
      </trkpt>
      <trkpt lat="49.76567" lon="4.80508">
        <ele>261.1352539</ele>
        <time>2012-10-06T08:07:56Z</time>
      </trkpt>
      <trkpt lat="49.76597" lon="4.80496">
        <ele>263.0578613</ele>
        <time>2012-10-06T08:08:13Z</time>
      </trkpt>
      <trkpt lat="49.76605" lon="4.80493">
        <ele>264.4998779</ele>
        <time>2012-10-06T08:08:21Z</time>
      </trkpt>
      <trkpt lat="49.76638" lon="4.80483">
        <ele>265.4613037</ele>
        <time>2012-10-06T08:08:35Z</time>
      </trkpt>
      <trkpt lat="49.76673" lon="4.80483">
        <ele>266.4224854</ele>
        <time>2012-10-06T08:08:51Z</time>
      </trkpt>
      <trkpt lat="49.76711" lon="4.8048">
        <ele>268.3450928</ele>
        <time>2012-10-06T08:09:08Z</time>
      </trkpt>
      <trkpt lat="49.76748" lon="4.80467">
        <ele>268.3450928</ele>
        <time>2012-10-06T08:09:21Z</time>
      </trkpt>
      <trkpt lat="49.76783" lon="4.80456">
        <ele>268.8258057</ele>
        <time>2012-10-06T08:09:32Z</time>
      </trkpt>
      <trkpt lat="49.76821" lon="4.80438">
        <ele>268.8258057</ele>
        <time>2012-10-06T08:09:44Z</time>
      </trkpt>
      <trkpt lat="49.76863" lon="4.80402">
        <ele>268.8258057</ele>
        <time>2012-10-06T08:09:59Z</time>
      </trkpt>
      <trkpt lat="49.7691" lon="4.80372">
        <ele>269.7871094</ele>
        <time>2012-10-06T08:10:18Z</time>
      </trkpt>
      <trkpt lat="49.76944" lon="4.80325">
        <ele>270.7484131</ele>
        <time>2012-10-06T08:10:35Z</time>
      </trkpt>
      <trkpt lat="49.76958" lon="4.80307">
        <ele>272.6711426</ele>
        <time>2012-10-06T08:10:43Z</time>
      </trkpt>
      <trkpt lat="49.7696" lon="4.80299">
        <ele>273.1518555</ele>
        <time>2012-10-06T08:10:46Z</time>
      </trkpt>
      <trkpt lat="49.76975" lon="4.80276">
        <ele>275.0744629</ele>
        <time>2012-10-06T08:10:57Z</time>
      </trkpt>
      <trkpt lat="49.76979" lon="4.80271">
        <ele>275.5550537</ele>
        <time>2012-10-06T08:11:01Z</time>
      </trkpt>
      <trkpt lat="49.77002" lon="4.80246">
        <ele>277.958252</ele>
        <time>2012-10-06T08:11:17Z</time>
      </trkpt>
      <trkpt lat="49.77017" lon="4.80225">
        <ele>279.8808594</ele>
        <time>2012-10-06T08:11:31Z</time>
      </trkpt>
      <trkpt lat="49.77041" lon="4.80204">
        <ele>281.8035889</ele>
        <time>2012-10-06T08:11:47Z</time>
      </trkpt>
      <trkpt lat="49.7706" lon="4.80176">
        <ele>282.7650146</ele>
        <time>2012-10-06T08:11:58Z</time>
      </trkpt>
      <trkpt lat="49.77074" lon="4.80151">
        <ele>282.2843018</ele>
        <time>2012-10-06T08:12:07Z</time>
      </trkpt>
      <trkpt lat="49.77072" lon="4.80135">
        <ele>282.2843018</ele>
        <time>2012-10-06T08:12:12Z</time>
      </trkpt>
      <trkpt lat="49.77069" lon="4.80128">
        <ele>281.8035889</ele>
        <time>2012-10-06T08:12:14Z</time>
      </trkpt>
      <trkpt lat="49.77066" lon="4.80124">
        <ele>281.8035889</ele>
        <time>2012-10-06T08:12:16Z</time>
      </trkpt>
      <trkpt lat="49.77063" lon="4.8012">
        <ele>282.2843018</ele>
        <time>2012-10-06T08:12:19Z</time>
      </trkpt>
      <trkpt lat="49.77038" lon="4.80106">
        <ele>281.322998</ele>
        <time>2012-10-06T08:12:29Z</time>
      </trkpt>
      <trkpt lat="49.77016" lon="4.80079">
        <ele>280.3616943</ele>
        <time>2012-10-06T08:12:38Z</time>
      </trkpt>
      <trkpt lat="49.77008" lon="4.80063">
        <ele>279.8808594</ele>
        <time>2012-10-06T08:12:42Z</time>
      </trkpt>
      <trkpt lat="49.77004" lon="4.80053">
        <ele>279.8808594</ele>
        <time>2012-10-06T08:12:45Z</time>
      </trkpt>
      <trkpt lat="49.76978" lon="4.80028">
        <ele>279.4002686</ele>
        <time>2012-10-06T08:12:54Z</time>
      </trkpt>
      <trkpt lat="49.76971" lon="4.80015">
        <ele>278.9196777</ele>
        <time>2012-10-06T08:12:58Z</time>
      </trkpt>
      <trkpt lat="49.76965" lon="4.80006">
        <ele>278.4389648</ele>
        <time>2012-10-06T08:13:01Z</time>
      </trkpt>
      <trkpt lat="49.76949" lon="4.7996">
        <ele>277.958252</ele>
        <time>2012-10-06T08:13:13Z</time>
      </trkpt>
      <trkpt lat="49.76947" lon="4.79948">
        <ele>278.4389648</ele>
        <time>2012-10-06T08:13:26Z</time>
      </trkpt>
      <trkpt lat="49.76936" lon="4.79919">
        <ele>276.9970703</ele>
        <time>2012-10-06T08:13:51Z</time>
      </trkpt>
      <trkpt lat="49.76914" lon="4.79864">
        <ele>276.0356445</ele>
        <time>2012-10-06T08:14:06Z</time>
      </trkpt>
      <trkpt lat="49.76879" lon="4.79782">
        <ele>274.59375</ele>
        <time>2012-10-06T08:14:27Z</time>
      </trkpt>
      <trkpt lat="49.76849" lon="4.79717">
        <ele>274.1130371</ele>
        <time>2012-10-06T08:14:44Z</time>
      </trkpt>
      <trkpt lat="49.76819" lon="4.79648">
        <ele>272.6711426</ele>
        <time>2012-10-06T08:15:00Z</time>
      </trkpt>
      <trkpt lat="49.76802" lon="4.79614">
        <ele>271.7097168</ele>
        <time>2012-10-06T08:15:09Z</time>
      </trkpt>
      <trkpt lat="49.76786" lon="4.79588">
        <ele>270.7484131</ele>
        <time>2012-10-06T08:15:18Z</time>
      </trkpt>
      <trkpt lat="49.76759" lon="4.79537">
        <ele>269.7871094</ele>
        <time>2012-10-06T08:15:34Z</time>
      </trkpt>
      <trkpt lat="49.76749" lon="4.79511">
        <ele>269.3065186</ele>
        <time>2012-10-06T08:15:41Z</time>
      </trkpt>
      <trkpt lat="49.76734" lon="4.79464">
        <ele>267.864502</ele>
        <time>2012-10-06T08:15:54Z</time>
      </trkpt>
      <trkpt lat="49.7672" lon="4.79412">
        <ele>267.864502</ele>
        <time>2012-10-06T08:16:05Z</time>
      </trkpt>
      <trkpt lat="49.76702" lon="4.79335">
        <ele>266.4224854</ele>
        <time>2012-10-06T08:16:21Z</time>
      </trkpt>
      <trkpt lat="49.76683" lon="4.79269">
        <ele>264.4998779</ele>
        <time>2012-10-06T08:16:36Z</time>
      </trkpt>
      <trkpt lat="49.76658" lon="4.79186">
        <ele>263.0578613</ele>
        <time>2012-10-06T08:16:54Z</time>
      </trkpt>
      <trkpt lat="49.7664" lon="4.79109">
        <ele>263.0578613</ele>
        <time>2012-10-06T08:17:13Z</time>
      </trkpt>
      <trkpt lat="49.76626" lon="4.79066">
        <ele>262.5771484</ele>
        <time>2012-10-06T08:17:25Z</time>
      </trkpt>
      <trkpt lat="49.76617" lon="4.79066">
        <ele>262.5771484</ele>
        <time>2012-10-06T08:17:29Z</time>
      </trkpt>
      <trkpt lat="49.76563" lon="4.79074">
        <ele>259.2126465</ele>
        <time>2012-10-06T08:17:47Z</time>
      </trkpt>
      <trkpt lat="49.76533" lon="4.79049">
        <ele>257.770752</ele>
        <time>2012-10-06T08:17:56Z</time>
      </trkpt>
      <trkpt lat="49.76514" lon="4.79034">
        <ele>256.3287354</ele>
        <time>2012-10-06T08:18:01Z</time>
      </trkpt>
      <trkpt lat="49.76492" lon="4.79024">
        <ele>253.925415</ele>
        <time>2012-10-06T08:18:06Z</time>
      </trkpt>
      <trkpt lat="49.76449" lon="4.79002">
        <ele>252.0028076</ele>
        <time>2012-10-06T08:18:17Z</time>
      </trkpt>
      <trkpt lat="49.76444" lon="4.79006">
        <ele>255.8480225</ele>
        <time>2012-10-06T08:18:25Z</time>
      </trkpt>
      <trkpt lat="49.76445" lon="4.79005">
        <ele>252.9639893</ele>
        <time>2012-10-06T08:18:27Z</time>
      </trkpt>
      <trkpt lat="49.76443" lon="4.79006">
        <ele>252.4833984</ele>
        <time>2012-10-06T08:19:06Z</time>
      </trkpt>
      <trkpt lat="49.7643" lon="4.78993">
        <ele>250.0802002</ele>
        <time>2012-10-06T08:19:11Z</time>
      </trkpt>
      <trkpt lat="49.76377" lon="4.78948">
        <ele>247.6767578</ele>
        <time>2012-10-06T08:19:27Z</time>
      </trkpt>
      <trkpt lat="49.76336" lon="4.78931">
        <ele>245.2734375</ele>
        <time>2012-10-06T08:19:38Z</time>
      </trkpt>
      <trkpt lat="49.76305" lon="4.78923">
        <ele>243.831543</ele>
        <time>2012-10-06T08:19:46Z</time>
      </trkpt>
      <trkpt lat="49.76301" lon="4.7893">
        <ele>244.7928467</ele>
        <time>2012-10-06T08:19:49Z</time>
      </trkpt>
      <trkpt lat="49.76299" lon="4.78929">
        <ele>244.7928467</ele>
        <time>2012-10-06T08:19:54Z</time>
      </trkpt>
      <trkpt lat="49.76297" lon="4.78924">
        <ele>244.7928467</ele>
        <time>2012-10-06T08:19:58Z</time>
      </trkpt>
      <trkpt lat="49.76256" lon="4.78909">
        <ele>241.9089355</ele>
        <time>2012-10-06T08:20:12Z</time>
      </trkpt>
      <trkpt lat="49.76204" lon="4.78891">
        <ele>238.5443115</ele>
        <time>2012-10-06T08:20:26Z</time>
      </trkpt>
      <trkpt lat="49.76179" lon="4.78881">
        <ele>237.5828857</ele>
        <time>2012-10-06T08:20:40Z</time>
      </trkpt>
      <trkpt lat="49.7617" lon="4.78872">
        <ele>237.5828857</ele>
        <time>2012-10-06T08:20:52Z</time>
      </trkpt>
      <trkpt lat="49.7617" lon="4.78873">
        <ele>237.5828857</ele>
        <time>2012-10-06T08:21:01Z</time>
      </trkpt>
      <trkpt lat="49.76162" lon="4.78872">
        <ele>236.1409912</ele>
        <time>2012-10-06T08:21:05Z</time>
      </trkpt>
      <trkpt lat="49.76149" lon="4.78866">
        <ele>234.2183838</ele>
        <time>2012-10-06T08:21:09Z</time>
      </trkpt>
      <trkpt lat="49.76099" lon="4.78838">
        <ele>230.8537598</ele>
        <time>2012-10-06T08:21:20Z</time>
      </trkpt>
      <trkpt lat="49.76068" lon="4.78819">
        <ele>228.9311523</ele>
        <time>2012-10-06T08:21:26Z</time>
      </trkpt>
      <trkpt lat="49.76051" lon="4.7881">
        <ele>227.4891357</ele>
        <time>2012-10-06T08:21:29Z</time>
      </trkpt>
      <trkpt lat="49.7604" lon="4.78803">
        <ele>227.0085449</ele>
        <time>2012-10-06T08:21:31Z</time>
      </trkpt>
      <trkpt lat="49.7602" lon="4.78792">
        <ele>226.527832</ele>
        <time>2012-10-06T08:21:35Z</time>
      </trkpt>
      <trkpt lat="49.76011" lon="4.78811">
        <ele>227.0085449</ele>
        <time>2012-10-06T08:21:40Z</time>
      </trkpt>
      <trkpt lat="49.76012" lon="4.78822">
        <ele>226.527832</ele>
        <time>2012-10-06T08:21:42Z</time>
      </trkpt>
      <trkpt lat="49.76005" lon="4.78858">
        <ele>223.6437988</ele>
        <time>2012-10-06T08:21:47Z</time>
      </trkpt>
      <trkpt lat="49.76001" lon="4.78874">
        <ele>223.163208</ele>
        <time>2012-10-06T08:21:49Z</time>
      </trkpt>
      <trkpt lat="49.7598" lon="4.78941">
        <ele>224.1245117</ele>
        <time>2012-10-06T08:22:03Z</time>
      </trkpt>
      <trkpt lat="49.75967" lon="4.78984">
        <ele>225.5665283</ele>
        <time>2012-10-06T08:22:15Z</time>
      </trkpt>
      <trkpt lat="49.75946" lon="4.79035">
        <ele>226.527832</ele>
        <time>2012-10-06T08:22:30Z</time>
      </trkpt>
      <trkpt lat="49.75919" lon="4.79095">
        <ele>227.9697266</ele>
        <time>2012-10-06T08:22:52Z</time>
      </trkpt>
      <trkpt lat="49.75901" lon="4.79136">
        <ele>228.9311523</ele>
        <time>2012-10-06T08:23:06Z</time>
      </trkpt>
      <trkpt lat="49.7589" lon="4.79162">
        <ele>229.892334</ele>
        <time>2012-10-06T08:23:17Z</time>
      </trkpt>
      <trkpt lat="49.75889" lon="4.79172">
        <ele>230.3730469</ele>
        <time>2012-10-06T08:23:20Z</time>
      </trkpt>
      <trkpt lat="49.75903" lon="4.79203">
        <ele>232.2957764</ele>
        <time>2012-10-06T08:23:33Z</time>
      </trkpt>
      <trkpt lat="49.75905" lon="4.79206">
        <ele>232.2957764</ele>
        <time>2012-10-06T08:23:34Z</time>
      </trkpt>
      <trkpt lat="49.75923" lon="4.79228">
        <ele>233.7376709</ele>
        <time>2012-10-06T08:23:45Z</time>
      </trkpt>
      <trkpt lat="49.75945" lon="4.79256">
        <ele>235.6602783</ele>
        <time>2012-10-06T08:24:02Z</time>
      </trkpt>
      <trkpt lat="49.7596" lon="4.79281">
        <ele>237.1022949</ele>
        <time>2012-10-06T08:24:18Z</time>
      </trkpt>
      <trkpt lat="49.75959" lon="4.79286">
        <ele>237.5828857</ele>
        <time>2012-10-06T08:24:30Z</time>
      </trkpt>
      <trkpt lat="49.75956" lon="4.79294">
        <ele>237.5828857</ele>
        <time>2012-10-06T08:24:45Z</time>
      </trkpt>
      <trkpt lat="49.75956" lon="4.79294">
        <ele>237.1022949</ele>
        <time>2012-10-06T08:25:23Z</time>
      </trkpt>
      <trkpt lat="49.75934" lon="4.79324">
        <ele>235.6602783</ele>
        <time>2012-10-06T08:25:38Z</time>
      </trkpt>
      <trkpt lat="49.75896" lon="4.79382">
        <ele>233.7376709</ele>
        <time>2012-10-06T08:25:56Z</time>
      </trkpt>
      <trkpt lat="49.75862" lon="4.79435">
        <ele>233.2570801</ele>
        <time>2012-10-06T08:26:15Z</time>
      </trkpt>
      <trkpt lat="49.75856" lon="4.79444">
        <ele>233.7376709</ele>
        <time>2012-10-06T08:27:52Z</time>
      </trkpt>
      <trkpt lat="49.75835" lon="4.79492">
        <ele>234.2183838</ele>
        <time>2012-10-06T08:28:08Z</time>
      </trkpt>
      <trkpt lat="49.75812" lon="4.79561">
        <ele>233.7376709</ele>
        <time>2012-10-06T08:28:27Z</time>
      </trkpt>
      <trkpt lat="49.75792" lon="4.79608">
        <ele>232.7764893</ele>
        <time>2012-10-06T08:28:40Z</time>
      </trkpt>
      <trkpt lat="49.75766" lon="4.79654">
        <ele>232.2957764</ele>
        <time>2012-10-06T08:28:53Z</time>
      </trkpt>
      <trkpt lat="49.75732" lon="4.79709">
        <ele>230.8537598</ele>
        <time>2012-10-06T08:29:08Z</time>
      </trkpt>
      <trkpt lat="49.75718" lon="4.79736">
        <ele>230.8537598</ele>
        <time>2012-10-06T08:29:19Z</time>
      </trkpt>
      <trkpt lat="49.75742" lon="4.79771">
        <ele>231.8149414</ele>
        <time>2012-10-06T08:29:33Z</time>
      </trkpt>
      <trkpt lat="49.75745" lon="4.79774">
        <ele>231.8149414</ele>
        <time>2012-10-06T08:29:34Z</time>
      </trkpt>
      <trkpt lat="49.75778" lon="4.79806">
        <ele>229.4117432</ele>
        <time>2012-10-06T08:29:48Z</time>
      </trkpt>
      <trkpt lat="49.75793" lon="4.7983">
        <ele>227.0085449</ele>
        <time>2012-10-06T08:29:55Z</time>
      </trkpt>
      <trkpt lat="49.75797" lon="4.79836">
        <ele>226.0471191</ele>
        <time>2012-10-06T08:29:57Z</time>
      </trkpt>
      <trkpt lat="49.75799" lon="4.79855">
        <ele>223.6437988</ele>
        <time>2012-10-06T08:30:01Z</time>
      </trkpt>
      <trkpt lat="49.75799" lon="4.79903">
        <ele>220.2791748</ele>
        <time>2012-10-06T08:30:10Z</time>
      </trkpt>
      <trkpt lat="49.75799" lon="4.79909">
        <ele>219.798584</ele>
        <time>2012-10-06T08:30:11Z</time>
      </trkpt>
      <trkpt lat="49.75804" lon="4.79934">
        <ele>217.3953857</ele>
        <time>2012-10-06T08:30:16Z</time>
      </trkpt>
      <trkpt lat="49.75801" lon="4.7999">
        <ele>214.0306396</ele>
        <time>2012-10-06T08:30:28Z</time>
      </trkpt>
      <trkpt lat="49.75792" lon="4.80007">
        <ele>212.1080322</ele>
        <time>2012-10-06T08:30:33Z</time>
      </trkpt>
      <trkpt lat="49.75766" lon="4.80031">
        <ele>209.2241211</ele>
        <time>2012-10-06T08:30:43Z</time>
      </trkpt>
      <trkpt lat="49.75763" lon="4.80029">
        <ele>208.2628174</ele>
        <time>2012-10-06T08:30:45Z</time>
      </trkpt>
      <trkpt lat="49.75753" lon="4.80045">
        <ele>206.3400879</ele>
        <time>2012-10-06T08:30:49Z</time>
      </trkpt>
      <trkpt lat="49.75752" lon="4.8005">
        <ele>206.3400879</ele>
        <time>2012-10-06T08:30:50Z</time>
      </trkpt>
      <trkpt lat="49.75748" lon="4.80068">
        <ele>205.8594971</ele>
        <time>2012-10-06T08:30:54Z</time>
      </trkpt>
      <trkpt lat="49.75741" lon="4.80077">
        <ele>205.3787842</ele>
        <time>2012-10-06T08:30:58Z</time>
      </trkpt>
      <trkpt lat="49.75726" lon="4.80081">
        <ele>205.3787842</ele>
        <time>2012-10-06T08:31:05Z</time>
      </trkpt>
      <trkpt lat="49.75701" lon="4.80102">
        <ele>205.3787842</ele>
        <time>2012-10-06T08:31:19Z</time>
      </trkpt>
      <trkpt lat="49.75673" lon="4.80117">
        <ele>204.4174805</ele>
        <time>2012-10-06T08:31:32Z</time>
      </trkpt>
      <trkpt lat="49.75652" lon="4.80136">
        <ele>204.4174805</ele>
        <time>2012-10-06T08:31:40Z</time>
      </trkpt>
      <trkpt lat="49.7564" lon="4.80143">
        <ele>202.0142822</ele>
        <time>2012-10-06T08:31:45Z</time>
      </trkpt>
      <trkpt lat="49.75615" lon="4.80168">
        <ele>201.5335693</ele>
        <time>2012-10-06T08:31:52Z</time>
      </trkpt>
      <trkpt lat="49.75562" lon="4.80197">
        <ele>201.0528564</ele>
        <time>2012-10-06T08:32:07Z</time>
      </trkpt>
      <trkpt lat="49.75559" lon="4.80198">
        <ele>201.0528564</ele>
        <time>2012-10-06T08:32:08Z</time>
      </trkpt>
      <trkpt lat="49.75529" lon="4.80224">
        <ele>201.5335693</ele>
        <time>2012-10-06T08:32:19Z</time>
      </trkpt>
      <trkpt lat="49.75525" lon="4.80234">
        <ele>201.5335693</ele>
        <time>2012-10-06T08:32:23Z</time>
      </trkpt>
      <trkpt lat="49.75521" lon="4.80237">
        <ele>201.5335693</ele>
        <time>2012-10-06T08:32:25Z</time>
      </trkpt>
      <trkpt lat="49.75496" lon="4.80263">
        <ele>200.5722656</ele>
        <time>2012-10-06T08:32:36Z</time>
      </trkpt>
      <trkpt lat="49.75492" lon="4.8026">
        <ele>202.0142822</ele>
        <time>2012-10-06T08:32:41Z</time>
      </trkpt>
      <trkpt lat="49.75492" lon="4.8025">
        <ele>203.4561768</ele>
        <time>2012-10-06T08:32:46Z</time>
      </trkpt>
      <trkpt lat="49.75494" lon="4.80234">
        <ele>206.3400879</ele>
        <time>2012-10-06T08:32:54Z</time>
      </trkpt>
      <trkpt lat="49.75494" lon="4.80213">
        <ele>209.2241211</ele>
        <time>2012-10-06T08:33:06Z</time>
      </trkpt>
      <trkpt lat="49.75496" lon="4.80205">
        <ele>209.704834</ele>
        <time>2012-10-06T08:33:09Z</time>
      </trkpt>
      <trkpt lat="49.75482" lon="4.80198">
        <ele>211.1467285</ele>
        <time>2012-10-06T08:33:19Z</time>
      </trkpt>
      <trkpt lat="49.75471" lon="4.80185">
        <ele>213.5500488</ele>
        <time>2012-10-06T08:33:30Z</time>
      </trkpt>
      <trkpt lat="49.75472" lon="4.80179">
        <ele>214.5112305</ele>
        <time>2012-10-06T08:33:34Z</time>
      </trkpt>
      <trkpt lat="49.75462" lon="4.8018">
        <ele>216.9146729</ele>
        <time>2012-10-06T08:33:48Z</time>
      </trkpt>
      <trkpt lat="49.75456" lon="4.80182">
        <ele>218.8372803</ele>
        <time>2012-10-06T08:33:55Z</time>
      </trkpt>
      <trkpt lat="49.75451" lon="4.80181">
        <ele>219.3179932</ele>
        <time>2012-10-06T08:33:57Z</time>
      </trkpt>
      <trkpt lat="49.75429" lon="4.80166">
        <ele>221.7211914</ele>
        <time>2012-10-06T08:34:14Z</time>
      </trkpt>
      <trkpt lat="49.75427" lon="4.80166">
        <ele>221.7211914</ele>
        <time>2012-10-06T08:34:17Z</time>
      </trkpt>
      <trkpt lat="49.75421" lon="4.80172">
        <ele>220.7598877</ele>
        <time>2012-10-06T08:34:21Z</time>
      </trkpt>
      <trkpt lat="49.75399" lon="4.80193">
        <ele>216.9146729</ele>
        <time>2012-10-06T08:34:30Z</time>
      </trkpt>
      <trkpt lat="49.75367" lon="4.80217">
        <ele>216.43396</ele>
        <time>2012-10-06T08:34:41Z</time>
      </trkpt>
      <trkpt lat="49.75342" lon="4.80246">
        <ele>215.4726563</ele>
        <time>2012-10-06T08:34:56Z</time>
      </trkpt>
      <trkpt lat="49.75319" lon="4.80268">
        <ele>214.5112305</ele>
        <time>2012-10-06T08:35:11Z</time>
      </trkpt>
      <trkpt lat="49.7529" lon="4.80288">
        <ele>211.6274414</ele>
        <time>2012-10-06T08:35:23Z</time>
      </trkpt>
      <trkpt lat="49.75257" lon="4.80311">
        <ele>208.2628174</ele>
        <time>2012-10-06T08:35:35Z</time>
      </trkpt>
      <trkpt lat="49.75243" lon="4.80281">
        <ele>207.3013916</ele>
        <time>2012-10-06T08:35:44Z</time>
      </trkpt>
      <trkpt lat="49.75234" lon="4.80218">
        <ele>204.4174805</ele>
        <time>2012-10-06T08:36:02Z</time>
      </trkpt>
      <trkpt lat="49.75227" lon="4.80174">
        <ele>203.9368896</ele>
        <time>2012-10-06T08:36:14Z</time>
      </trkpt>
      <trkpt lat="49.7521" lon="4.80173">
        <ele>199.6108398</ele>
        <time>2012-10-06T08:36:18Z</time>
      </trkpt>
      <trkpt lat="49.75184" lon="4.8018">
        <ele>195.2849121</ele>
        <time>2012-10-06T08:36:22Z</time>
      </trkpt>
      <trkpt lat="49.75177" lon="4.80181">
        <ele>195.2849121</ele>
        <time>2012-10-06T08:36:23Z</time>
      </trkpt>
      <trkpt lat="49.75149" lon="4.80184">
        <ele>196.2463379</ele>
        <time>2012-10-06T08:36:30Z</time>
      </trkpt>
      <trkpt lat="49.75146" lon="4.80197">
        <ele>196.2463379</ele>
        <time>2012-10-06T08:36:34Z</time>
      </trkpt>
      <trkpt lat="49.75147" lon="4.80227">
        <ele>196.2463379</ele>
        <time>2012-10-06T08:36:42Z</time>
      </trkpt>
      <trkpt lat="49.75147" lon="4.80237">
        <ele>196.7269287</ele>
        <time>2012-10-06T08:36:45Z</time>
      </trkpt>
      <trkpt lat="49.75151" lon="4.80251">
        <ele>196.2463379</ele>
        <time>2012-10-06T08:36:49Z</time>
      </trkpt>
      <trkpt lat="49.75154" lon="4.8031">
        <ele>195.765625</ele>
        <time>2012-10-06T08:37:05Z</time>
      </trkpt>
      <trkpt lat="49.75157" lon="4.8039">
        <ele>194.8043213</ele>
        <time>2012-10-06T08:37:27Z</time>
      </trkpt>
      <trkpt lat="49.75159" lon="4.80417">
        <ele>194.8043213</ele>
        <time>2012-10-06T08:37:35Z</time>
      </trkpt>
      <trkpt lat="49.75166" lon="4.8042">
        <ele>194.8043213</ele>
        <time>2012-10-06T08:38:50Z</time>
      </trkpt>
      <trkpt lat="49.75159" lon="4.80433">
        <ele>194.8043213</ele>
        <time>2012-10-06T08:38:55Z</time>
      </trkpt>
      <trkpt lat="49.75148" lon="4.80512">
        <ele>193.8430176</ele>
        <time>2012-10-06T08:39:13Z</time>
      </trkpt>
      <trkpt lat="49.75138" lon="4.80599">
        <ele>193.3623047</ele>
        <time>2012-10-06T08:39:30Z</time>
      </trkpt>
      <trkpt lat="49.7514" lon="4.80628">
        <ele>193.8430176</ele>
        <time>2012-10-06T08:39:39Z</time>
      </trkpt>
      <trkpt lat="49.75133" lon="4.80677">
        <ele>193.3623047</ele>
        <time>2012-10-06T08:39:54Z</time>
      </trkpt>
      <trkpt lat="49.75132" lon="4.8069">
        <ele>194.3237305</ele>
        <time>2012-10-06T08:40:08Z</time>
      </trkpt>
      <trkpt lat="49.75133" lon="4.80691">
        <ele>193.8430176</ele>
        <time>2012-10-06T08:41:05Z</time>
      </trkpt>
      <trkpt lat="49.75155" lon="4.80692">
        <ele>193.8430176</ele>
        <time>2012-10-06T08:41:20Z</time>
      </trkpt>
      <trkpt lat="49.75184" lon="4.80693">
        <ele>194.3237305</ele>
        <time>2012-10-06T08:41:35Z</time>
      </trkpt>
      <trkpt lat="49.75217" lon="4.80692">
        <ele>195.2849121</ele>
        <time>2012-10-06T08:41:52Z</time>
      </trkpt>
      <trkpt lat="49.75242" lon="4.80699">
        <ele>195.765625</ele>
        <time>2012-10-06T08:42:06Z</time>
      </trkpt>
      <trkpt lat="49.75277" lon="4.80685">
        <ele>197.2075195</ele>
        <time>2012-10-06T08:42:25Z</time>
      </trkpt>
      <trkpt lat="49.75294" lon="4.80675">
        <ele>197.2075195</ele>
        <time>2012-10-06T08:42:37Z</time>
      </trkpt>
      <trkpt lat="49.75296" lon="4.80675">
        <ele>197.2075195</ele>
        <time>2012-10-06T08:42:39Z</time>
      </trkpt>
      <trkpt lat="49.75307" lon="4.80672">
        <ele>197.2075195</ele>
        <time>2012-10-06T08:42:44Z</time>
      </trkpt>
      <trkpt lat="49.75316" lon="4.80674">
        <ele>197.2075195</ele>
        <time>2012-10-06T08:42:48Z</time>
      </trkpt>
      <trkpt lat="49.75338" lon="4.80673">
        <ele>197.6882324</ele>
        <time>2012-10-06T08:42:58Z</time>
      </trkpt>
      <trkpt lat="49.75352" lon="4.80675">
        <ele>198.6495361</ele>
        <time>2012-10-06T08:43:05Z</time>
      </trkpt>
      <trkpt lat="49.7536" lon="4.80675">
        <ele>199.130127</ele>
        <time>2012-10-06T08:43:09Z</time>
      </trkpt>
      <trkpt lat="49.7538" lon="4.8068">
        <ele>200.5722656</ele>
        <time>2012-10-06T08:43:23Z</time>
      </trkpt>
      <trkpt lat="49.75389" lon="4.80684">
        <ele>201.5335693</ele>
        <time>2012-10-06T08:43:29Z</time>
      </trkpt>
      <trkpt lat="49.75395" lon="4.80682">
        <ele>201.5335693</ele>
        <time>2012-10-06T08:43:31Z</time>
      </trkpt>
      <trkpt lat="49.75402" lon="4.8069">
        <ele>202.494873</ele>
        <time>2012-10-06T08:43:38Z</time>
      </trkpt>
      <trkpt lat="49.75426" lon="4.80701">
        <ele>203.4561768</ele>
        <time>2012-10-06T08:43:53Z</time>
      </trkpt>
      <trkpt lat="49.75451" lon="4.80716">
        <ele>205.3787842</ele>
        <time>2012-10-06T08:44:10Z</time>
      </trkpt>
      <trkpt lat="49.75465" lon="4.80724">
        <ele>205.8594971</ele>
        <time>2012-10-06T08:44:20Z</time>
      </trkpt>
      <trkpt lat="49.75489" lon="4.80742">
        <ele>207.3013916</ele>
        <time>2012-10-06T08:44:35Z</time>
      </trkpt>
      <trkpt lat="49.75504" lon="4.80755">
        <ele>208.2628174</ele>
        <time>2012-10-06T08:44:46Z</time>
      </trkpt>
      <trkpt lat="49.75521" lon="4.80768">
        <ele>209.2241211</ele>
        <time>2012-10-06T08:44:58Z</time>
      </trkpt>
      <trkpt lat="49.75542" lon="4.80784">
        <ele>210.6660156</ele>
        <time>2012-10-06T08:45:12Z</time>
      </trkpt>
      <trkpt lat="49.75557" lon="4.80803">
        <ele>212.1080322</ele>
        <time>2012-10-06T08:45:25Z</time>
      </trkpt>
      <trkpt lat="49.7557" lon="4.80815">
        <ele>214.0306396</ele>
        <time>2012-10-06T08:45:35Z</time>
      </trkpt>
      <trkpt lat="49.75581" lon="4.8082">
        <ele>214.9919434</ele>
        <time>2012-10-06T08:45:43Z</time>
      </trkpt>
      <trkpt lat="49.75583" lon="4.80824">
        <ele>215.4726563</ele>
        <time>2012-10-06T08:45:55Z</time>
      </trkpt>
      <trkpt lat="49.75584" lon="4.80826">
        <ele>216.9146729</ele>
        <time>2012-10-06T08:47:30Z</time>
      </trkpt>
      <trkpt lat="49.75585" lon="4.80826">
        <ele>218.3565674</ele>
        <time>2012-10-06T08:48:51Z</time>
      </trkpt>
      <trkpt lat="49.75586" lon="4.80822">
        <ele>217.8759766</ele>
        <time>2012-10-06T08:49:10Z</time>
      </trkpt>
      <trkpt lat="49.7559" lon="4.80843">
        <ele>219.3179932</ele>
        <time>2012-10-06T08:50:31Z</time>
      </trkpt>
      <trkpt lat="49.75596" lon="4.80843">
        <ele>220.2791748</ele>
        <time>2012-10-06T08:50:38Z</time>
      </trkpt>
      <trkpt lat="49.75623" lon="4.80841">
        <ele>220.7598877</ele>
        <time>2012-10-06T08:50:51Z</time>
      </trkpt>
      <trkpt lat="49.75634" lon="4.80845">
        <ele>221.7211914</ele>
        <time>2012-10-06T08:51:01Z</time>
      </trkpt>
      <trkpt lat="49.75642" lon="4.8085">
        <ele>221.7211914</ele>
        <time>2012-10-06T08:51:05Z</time>
      </trkpt>
      <trkpt lat="49.75654" lon="4.80857">
        <ele>222.6824951</ele>
        <time>2012-10-06T08:51:13Z</time>
      </trkpt>
      <trkpt lat="49.75675" lon="4.80865">
        <ele>223.6437988</ele>
        <time>2012-10-06T08:51:25Z</time>
      </trkpt>
      <trkpt lat="49.75691" lon="4.80873">
        <ele>224.1245117</ele>
        <time>2012-10-06T08:51:35Z</time>
      </trkpt>
      <trkpt lat="49.75722" lon="4.80883">
        <ele>225.0859375</ele>
        <time>2012-10-06T08:51:51Z</time>
      </trkpt>
      <trkpt lat="49.75733" lon="4.80884">
        <ele>225.5665283</ele>
        <time>2012-10-06T08:51:57Z</time>
      </trkpt>
      <trkpt lat="49.75742" lon="4.80888">
        <ele>226.0471191</ele>
        <time>2012-10-06T08:52:02Z</time>
      </trkpt>
      <trkpt lat="49.7576" lon="4.80891">
        <ele>227.0085449</ele>
        <time>2012-10-06T08:52:10Z</time>
      </trkpt>
      <trkpt lat="49.75793" lon="4.80897">
        <ele>227.9697266</ele>
        <time>2012-10-06T08:52:25Z</time>
      </trkpt>
      <trkpt lat="49.75815" lon="4.80906">
        <ele>228.9311523</ele>
        <time>2012-10-06T08:52:36Z</time>
      </trkpt>
      <trkpt lat="49.75832" lon="4.80917">
        <ele>229.4117432</ele>
        <time>2012-10-06T08:52:47Z</time>
      </trkpt>
      <trkpt lat="49.75849" lon="4.80934">
        <ele>230.3730469</ele>
        <time>2012-10-06T08:52:58Z</time>
      </trkpt>
      <trkpt lat="49.7585" lon="4.80936">
        <ele>230.8537598</ele>
        <time>2012-10-06T08:52:59Z</time>
      </trkpt>
      <trkpt lat="49.75857" lon="4.80943">
        <ele>230.3730469</ele>
        <time>2012-10-06T08:53:02Z</time>
      </trkpt>
      <trkpt lat="49.75862" lon="4.80949">
        <ele>230.8537598</ele>
        <time>2012-10-06T08:53:06Z</time>
      </trkpt>
      <trkpt lat="49.7587" lon="4.80958">
        <ele>230.8537598</ele>
        <time>2012-10-06T08:53:11Z</time>
      </trkpt>
      <trkpt lat="49.75882" lon="4.80969">
        <ele>231.3343506</ele>
        <time>2012-10-06T08:53:18Z</time>
      </trkpt>
      <trkpt lat="49.75888" lon="4.80978">
        <ele>232.2957764</ele>
        <time>2012-10-06T08:53:22Z</time>
      </trkpt>
      <trkpt lat="49.75908" lon="4.81006">
        <ele>233.2570801</ele>
        <time>2012-10-06T08:53:33Z</time>
      </trkpt>
      <trkpt lat="49.75915" lon="4.81018">
        <ele>233.7376709</ele>
        <time>2012-10-06T08:53:38Z</time>
      </trkpt>
      <trkpt lat="49.75916" lon="4.81023">
        <ele>233.7376709</ele>
        <time>2012-10-06T08:53:40Z</time>
      </trkpt>
      <trkpt lat="49.75926" lon="4.81043">
        <ele>235.1796875</ele>
        <time>2012-10-06T08:53:49Z</time>
      </trkpt>
      <trkpt lat="49.75946" lon="4.81075">
        <ele>237.1022949</ele>
        <time>2012-10-06T08:54:04Z</time>
      </trkpt>
      <trkpt lat="49.75949" lon="4.8108">
        <ele>237.1022949</ele>
        <time>2012-10-06T08:54:07Z</time>
      </trkpt>
      <trkpt lat="49.75958" lon="4.81093">
        <ele>238.0635986</ele>
        <time>2012-10-06T08:54:14Z</time>
      </trkpt>
      <trkpt lat="49.75963" lon="4.81103">
        <ele>238.5443115</ele>
        <time>2012-10-06T08:54:18Z</time>
      </trkpt>
      <trkpt lat="49.75983" lon="4.8113">
        <ele>239.5054932</ele>
        <time>2012-10-06T08:54:33Z</time>
      </trkpt>
      <trkpt lat="49.75989" lon="4.81136">
        <ele>239.9862061</ele>
        <time>2012-10-06T08:54:37Z</time>
      </trkpt>
      <trkpt lat="49.76009" lon="4.81162">
        <ele>241.4282227</ele>
        <time>2012-10-06T08:54:51Z</time>
      </trkpt>
      <trkpt lat="49.76027" lon="4.81188">
        <ele>242.8702393</ele>
        <time>2012-10-06T08:55:04Z</time>
      </trkpt>
      <trkpt lat="49.76041" lon="4.81207">
        <ele>243.831543</ele>
        <time>2012-10-06T08:55:15Z</time>
      </trkpt>
      <trkpt lat="49.76057" lon="4.81228">
        <ele>244.7928467</ele>
        <time>2012-10-06T08:55:28Z</time>
      </trkpt>
      <trkpt lat="49.76085" lon="4.81251">
        <ele>246.2348633</ele>
        <time>2012-10-06T08:55:45Z</time>
      </trkpt>
      <trkpt lat="49.76086" lon="4.81259">
        <ele>246.2348633</ele>
        <time>2012-10-06T08:55:49Z</time>
      </trkpt>
      <trkpt lat="49.76097" lon="4.8127">
        <ele>246.7154541</ele>
        <time>2012-10-06T08:55:57Z</time>
      </trkpt>
      <trkpt lat="49.76112" lon="4.81289">
        <ele>248.6381836</ele>
        <time>2012-10-06T08:56:10Z</time>
      </trkpt>
      <trkpt lat="49.76125" lon="4.81302">
        <ele>250.0802002</ele>
        <time>2012-10-06T08:56:21Z</time>
      </trkpt>
      <trkpt lat="49.76131" lon="4.8131">
        <ele>251.0413818</ele>
        <time>2012-10-06T08:56:26Z</time>
      </trkpt>
      <trkpt lat="49.76131" lon="4.81319">
        <ele>251.5220947</ele>
        <time>2012-10-06T08:56:30Z</time>
      </trkpt>
      <trkpt lat="49.76132" lon="4.81326">
        <ele>252.0028076</ele>
        <time>2012-10-06T08:56:33Z</time>
      </trkpt>
      <trkpt lat="49.76132" lon="4.8134">
        <ele>253.4447021</ele>
        <time>2012-10-06T08:56:41Z</time>
      </trkpt>
      <trkpt lat="49.76131" lon="4.8135">
        <ele>255.3673096</ele>
        <time>2012-10-06T08:56:46Z</time>
      </trkpt>
      <trkpt lat="49.7613" lon="4.81358">
        <ele>255.8480225</ele>
        <time>2012-10-06T08:56:49Z</time>
      </trkpt>
      <trkpt lat="49.76132" lon="4.81364">
        <ele>256.8093262</ele>
        <time>2012-10-06T08:56:52Z</time>
      </trkpt>
      <trkpt lat="49.76129" lon="4.81379">
        <ele>258.7319336</ele>
        <time>2012-10-06T08:57:01Z</time>
      </trkpt>
      <trkpt lat="49.76129" lon="4.81384">
        <ele>258.7319336</ele>
        <time>2012-10-06T08:57:03Z</time>
      </trkpt>
      <trkpt lat="49.76127" lon="4.81402">
        <ele>260.1739502</ele>
        <time>2012-10-06T08:57:13Z</time>
      </trkpt>
      <trkpt lat="49.76128" lon="4.81426">
        <ele>261.6159668</ele>
        <time>2012-10-06T08:57:27Z</time>
      </trkpt>
      <trkpt lat="49.76128" lon="4.81427">
        <ele>262.5771484</ele>
        <time>2012-10-06T08:58:29Z</time>
      </trkpt>
      <trkpt lat="49.76128" lon="4.81427">
        <ele>262.0965576</ele>
        <time>2012-10-06T08:58:57Z</time>
      </trkpt>
      <trkpt lat="49.76124" lon="4.81429">
        <ele>261.6159668</ele>
        <time>2012-10-06T08:59:02Z</time>
      </trkpt>
      <trkpt lat="49.76121" lon="4.81431">
        <ele>261.6159668</ele>
        <time>2012-10-06T08:59:04Z</time>
      </trkpt>
      <trkpt lat="49.76094" lon="4.81418">
        <ele>260.1739502</ele>
        <time>2012-10-06T08:59:21Z</time>
      </trkpt>
      <trkpt lat="49.76093" lon="4.81417">
        <ele>260.654541</ele>
        <time>2012-10-06T08:59:38Z</time>
      </trkpt>
      <trkpt lat="49.7609" lon="4.81414">
        <ele>260.654541</ele>
        <time>2012-10-06T09:00:32Z</time>
      </trkpt>
      <trkpt lat="49.76059" lon="4.81394">
        <ele>258.7319336</ele>
        <time>2012-10-06T09:00:46Z</time>
      </trkpt>
      <trkpt lat="49.76008" lon="4.81359">
        <ele>258.2513428</ele>
        <time>2012-10-06T09:01:04Z</time>
      </trkpt>
      <trkpt lat="49.75975" lon="4.81341">
        <ele>257.2900391</ele>
        <time>2012-10-06T09:01:16Z</time>
      </trkpt>
      <trkpt lat="49.75946" lon="4.81329">
        <ele>256.8093262</ele>
        <time>2012-10-06T09:01:27Z</time>
      </trkpt>
      <trkpt lat="49.75917" lon="4.81322">
        <ele>254.8865967</ele>
        <time>2012-10-06T09:01:37Z</time>
      </trkpt>
      <trkpt lat="49.75881" lon="4.81336">
        <ele>253.925415</ele>
        <time>2012-10-06T09:01:49Z</time>
      </trkpt>
      <trkpt lat="49.75862" lon="4.81348">
        <ele>252.4833984</ele>
        <time>2012-10-06T09:01:57Z</time>
      </trkpt>
      <trkpt lat="49.75844" lon="4.81371">
        <ele>251.0413818</ele>
        <time>2012-10-06T09:02:10Z</time>
      </trkpt>
      <trkpt lat="49.75843" lon="4.81371">
        <ele>251.5220947</ele>
        <time>2012-10-06T09:02:16Z</time>
      </trkpt>
      <trkpt lat="49.7584" lon="4.81377">
        <ele>251.0413818</ele>
        <time>2012-10-06T09:02:24Z</time>
      </trkpt>
      <trkpt lat="49.75838" lon="4.81391">
        <ele>249.1187744</ele>
        <time>2012-10-06T09:02:30Z</time>
      </trkpt>
      <trkpt lat="49.75807" lon="4.8142">
        <ele>247.6767578</ele>
        <time>2012-10-06T09:02:40Z</time>
      </trkpt>
      <trkpt lat="49.75793" lon="4.81429">
        <ele>247.6767578</ele>
        <time>2012-10-06T09:02:44Z</time>
      </trkpt>
      <trkpt lat="49.75764" lon="4.81446">
        <ele>245.2734375</ele>
        <time>2012-10-06T09:02:53Z</time>
      </trkpt>
      <trkpt lat="49.757" lon="4.81464">
        <ele>244.3122559</ele>
        <time>2012-10-06T09:03:04Z</time>
      </trkpt>
      <trkpt lat="49.75685" lon="4.81468">
        <ele>242.8702393</ele>
        <time>2012-10-06T09:03:08Z</time>
      </trkpt>
      <trkpt lat="49.75636" lon="4.81493">
        <ele>239.9862061</ele>
        <time>2012-10-06T09:03:25Z</time>
      </trkpt>
      <trkpt lat="49.75615" lon="4.81507">
        <ele>239.0249023</ele>
        <time>2012-10-06T09:03:32Z</time>
      </trkpt>
      <trkpt lat="49.75582" lon="4.8154">
        <ele>236.6217041</ele>
        <time>2012-10-06T09:03:42Z</time>
      </trkpt>
      <trkpt lat="49.75562" lon="4.81565">
        <ele>234.2183838</ele>
        <time>2012-10-06T09:03:48Z</time>
      </trkpt>
      <trkpt lat="49.75542" lon="4.81595">
        <ele>232.7764893</ele>
        <time>2012-10-06T09:03:55Z</time>
      </trkpt>
      <trkpt lat="49.75534" lon="4.81604">
        <ele>232.2957764</ele>
        <time>2012-10-06T09:03:57Z</time>
      </trkpt>
      <trkpt lat="49.75497" lon="4.8164">
        <ele>229.4117432</ele>
        <time>2012-10-06T09:04:06Z</time>
      </trkpt>
      <trkpt lat="49.75469" lon="4.81657">
        <ele>226.527832</ele>
        <time>2012-10-06T09:04:12Z</time>
      </trkpt>
      <trkpt lat="49.75464" lon="4.8166">
        <ele>226.0471191</ele>
        <time>2012-10-06T09:04:13Z</time>
      </trkpt>
      <trkpt lat="49.75448" lon="4.81668">
        <ele>224.6052246</ele>
        <time>2012-10-06T09:04:16Z</time>
      </trkpt>
      <trkpt lat="49.75438" lon="4.81676">
        <ele>223.6437988</ele>
        <time>2012-10-06T09:04:18Z</time>
      </trkpt>
      <trkpt lat="49.75415" lon="4.81692">
        <ele>221.2406006</ele>
        <time>2012-10-06T09:04:22Z</time>
      </trkpt>
      <trkpt lat="49.75399" lon="4.81705">
        <ele>219.798584</ele>
        <time>2012-10-06T09:04:25Z</time>
      </trkpt>
      <trkpt lat="49.75371" lon="4.81729">
        <ele>217.8759766</ele>
        <time>2012-10-06T09:04:31Z</time>
      </trkpt>
      <trkpt lat="49.75354" lon="4.81744">
        <ele>214.0306396</ele>
        <time>2012-10-06T09:04:35Z</time>
      </trkpt>
      <trkpt lat="49.75319" lon="4.81755">
        <ele>212.1080322</ele>
        <time>2012-10-06T09:04:41Z</time>
      </trkpt>
      <trkpt lat="49.75305" lon="4.81755">
        <ele>211.1467285</ele>
        <time>2012-10-06T09:04:43Z</time>
      </trkpt>
      <trkpt lat="49.75287" lon="4.81756">
        <ele>210.6660156</ele>
        <time>2012-10-06T09:04:46Z</time>
      </trkpt>
      <trkpt lat="49.75275" lon="4.81754">
        <ele>209.2241211</ele>
        <time>2012-10-06T09:04:48Z</time>
      </trkpt>
      <trkpt lat="49.75221" lon="4.81716">
        <ele>206.8206787</ele>
        <time>2012-10-06T09:04:58Z</time>
      </trkpt>
      <trkpt lat="49.75207" lon="4.81701">
        <ele>205.3787842</ele>
        <time>2012-10-06T09:05:01Z</time>
      </trkpt>
      <trkpt lat="49.75184" lon="4.81699">
        <ele>202.9754639</ele>
        <time>2012-10-06T09:05:06Z</time>
      </trkpt>
      <trkpt lat="49.75166" lon="4.81713">
        <ele>201.0528564</ele>
        <time>2012-10-06T09:05:10Z</time>
      </trkpt>
      <trkpt lat="49.75146" lon="4.81739">
        <ele>198.6495361</ele>
        <time>2012-10-06T09:05:19Z</time>
      </trkpt>
      <trkpt lat="49.75141" lon="4.81743">
        <ele>198.1689453</ele>
        <time>2012-10-06T09:05:34Z</time>
      </trkpt>
      <trkpt lat="49.75141" lon="4.81743">
        <ele>197.6882324</ele>
        <time>2012-10-06T09:06:14Z</time>
      </trkpt>
      <trkpt lat="49.75134" lon="4.81756">
        <ele>195.765625</ele>
        <time>2012-10-06T09:06:18Z</time>
      </trkpt>
      <trkpt lat="49.75128" lon="4.81767">
        <ele>194.8043213</ele>
        <time>2012-10-06T09:06:20Z</time>
      </trkpt>
      <trkpt lat="49.75108" lon="4.81798">
        <ele>191.4395752</ele>
        <time>2012-10-06T09:06:26Z</time>
      </trkpt>
      <trkpt lat="49.75087" lon="4.81815">
        <ele>189.9976807</ele>
        <time>2012-10-06T09:06:30Z</time>
      </trkpt>
      <trkpt lat="49.75034" lon="4.8184">
        <ele>187.5943604</ele>
        <time>2012-10-06T09:06:42Z</time>
      </trkpt>
      <trkpt lat="49.75031" lon="4.81839">
        <ele>187.5943604</ele>
        <time>2012-10-06T09:06:56Z</time>
      </trkpt>
      <trkpt lat="49.7503" lon="4.8184">
        <ele>187.1137695</ele>
        <time>2012-10-06T09:07:55Z</time>
      </trkpt>
      <trkpt lat="49.75026" lon="4.81849">
        <ele>187.1137695</ele>
        <time>2012-10-06T09:08:00Z</time>
      </trkpt>
      <trkpt lat="49.75023" lon="4.81859">
        <ele>187.1137695</ele>
        <time>2012-10-06T09:08:04Z</time>
      </trkpt>
      <trkpt lat="49.75012" lon="4.819">
        <ele>188.0750732</ele>
        <time>2012-10-06T09:08:18Z</time>
      </trkpt>
      <trkpt lat="49.75017" lon="4.8193">
        <ele>189.036377</ele>
        <time>2012-10-06T09:08:28Z</time>
      </trkpt>
      <trkpt lat="49.75008" lon="4.81933">
        <ele>189.9976807</ele>
        <time>2012-10-06T09:08:34Z</time>
      </trkpt>
      <trkpt lat="49.75003" lon="4.81923">
        <ele>189.9976807</ele>
        <time>2012-10-06T09:08:38Z</time>
      </trkpt>
      <trkpt lat="49.75002" lon="4.81909">
        <ele>190.4783936</ele>
        <time>2012-10-06T09:08:42Z</time>
      </trkpt>
      <trkpt lat="49.74996" lon="4.81874">
        <ele>191.4395752</ele>
        <time>2012-10-06T09:08:54Z</time>
      </trkpt>
      <trkpt lat="49.74992" lon="4.81852">
        <ele>192.8817139</ele>
        <time>2012-10-06T09:09:03Z</time>
      </trkpt>
      <trkpt lat="49.7499" lon="4.81845">
        <ele>193.8430176</ele>
        <time>2012-10-06T09:09:06Z</time>
      </trkpt>
      <trkpt lat="49.74969" lon="4.81805">
        <ele>195.765625</ele>
        <time>2012-10-06T09:09:27Z</time>
      </trkpt>
      <trkpt lat="49.74955" lon="4.8178">
        <ele>199.130127</ele>
        <time>2012-10-06T09:09:43Z</time>
      </trkpt>
      <trkpt lat="49.74945" lon="4.81765">
        <ele>200.0916748</ele>
        <time>2012-10-06T09:09:53Z</time>
      </trkpt>
      <trkpt lat="49.74932" lon="4.81754">
        <ele>202.0142822</ele>
        <time>2012-10-06T09:10:06Z</time>
      </trkpt>
      <trkpt lat="49.74928" lon="4.81751">
        <ele>202.494873</ele>
        <time>2012-10-06T09:10:10Z</time>
      </trkpt>
      <trkpt lat="49.74911" lon="4.81744">
        <ele>204.8980713</ele>
        <time>2012-10-06T09:10:24Z</time>
      </trkpt>
      <trkpt lat="49.7489" lon="4.81732">
        <ele>207.7821045</ele>
        <time>2012-10-06T09:10:42Z</time>
      </trkpt>
      <trkpt lat="49.74869" lon="4.81718">
        <ele>210.6660156</ele>
        <time>2012-10-06T09:11:00Z</time>
      </trkpt>
      <trkpt lat="49.74841" lon="4.81713">
        <ele>213.5500488</ele>
        <time>2012-10-06T09:11:21Z</time>
      </trkpt>
      <trkpt lat="49.74822" lon="4.81711">
        <ele>216.43396</ele>
        <time>2012-10-06T09:11:34Z</time>
      </trkpt>
      <trkpt lat="49.74797" lon="4.81714">
        <ele>219.3179932</ele>
        <time>2012-10-06T09:11:52Z</time>
      </trkpt>
      <trkpt lat="49.7477" lon="4.81726">
        <ele>219.3179932</ele>
        <time>2012-10-06T09:12:08Z</time>
      </trkpt>
      <trkpt lat="49.74717" lon="4.8175">
        <ele>218.3565674</ele>
        <time>2012-10-06T09:12:28Z</time>
      </trkpt>
      <trkpt lat="49.74697" lon="4.81759">
        <ele>219.3179932</ele>
        <time>2012-10-06T09:12:42Z</time>
      </trkpt>
      <trkpt lat="49.74682" lon="4.81765">
        <ele>218.8372803</ele>
        <time>2012-10-06T09:19:22Z</time>
      </trkpt>
      <trkpt lat="49.74638" lon="4.81786">
        <ele>218.8372803</ele>
        <time>2012-10-06T09:19:43Z</time>
      </trkpt>
      <trkpt lat="49.74608" lon="4.81813">
        <ele>217.8759766</ele>
        <time>2012-10-06T09:19:58Z</time>
      </trkpt>
      <trkpt lat="49.74591" lon="4.81852">
        <ele>216.43396</ele>
        <time>2012-10-06T09:20:12Z</time>
      </trkpt>
      <trkpt lat="49.74578" lon="4.81857">
        <ele>214.5112305</ele>
        <time>2012-10-06T09:20:15Z</time>
      </trkpt>
      <trkpt lat="49.7453" lon="4.81871">
        <ele>214.0306396</ele>
        <time>2012-10-06T09:20:27Z</time>
      </trkpt>
      <trkpt lat="49.74521" lon="4.81873">
        <ele>214.9919434</ele>
        <time>2012-10-06T09:20:31Z</time>
      </trkpt>
      <trkpt lat="49.7451" lon="4.81844">
        <ele>215.9532471</ele>
        <time>2012-10-06T09:20:44Z</time>
      </trkpt>
      <trkpt lat="49.74509" lon="4.81841">
        <ele>215.9532471</ele>
        <time>2012-10-06T09:20:45Z</time>
      </trkpt>
      <trkpt lat="49.74487" lon="4.81819">
        <ele>217.3953857</ele>
        <time>2012-10-06T09:21:00Z</time>
      </trkpt>
      <trkpt lat="49.74443" lon="4.81805">
        <ele>215.9532471</ele>
        <time>2012-10-06T09:21:20Z</time>
      </trkpt>
      <trkpt lat="49.74378" lon="4.81786">
        <ele>214.0306396</ele>
        <time>2012-10-06T09:21:40Z</time>
      </trkpt>
      <trkpt lat="49.74359" lon="4.81779">
        <ele>215.4726563</ele>
        <time>2012-10-06T09:21:47Z</time>
      </trkpt>
      <trkpt lat="49.74306" lon="4.81766">
        <ele>216.9146729</ele>
        <time>2012-10-06T09:22:10Z</time>
      </trkpt>
      <trkpt lat="49.74263" lon="4.81749">
        <ele>216.9146729</ele>
        <time>2012-10-06T09:22:30Z</time>
      </trkpt>
    </trkseg>
  </trk>
</gpx>